sensor_id;sensor_type;location;lat;lon;timestamp;temperature;humidity
24664;DHT22;12791;50.992;13.788;2023-04-03T00:02:22;4.70;87.90
24664;DHT22;12791;50.992;13.788;2023-04-03T00:04:49;4.80;88.50
24664;DHT22;12791;50.992;13.788;2023-04-03T00:07:15;4.50;87.40
24664;DHT22;12791;50.992;13.788;2023-04-03T00:09:42;4.50;88.00
24664;DHT22;12791;50.992;13.788;2023-04-03T00:12:09;4.50;87.50
24664;DHT22;12791;50.992;13.788;2023-04-03T00:14:36;4.50;87.00
24664;DHT22;12791;50.992;13.788;2023-04-03T00:17:04;4.60;84.40
24664;DHT22;12791;50.992;13.788;2023-04-03T00:19:30;4.60;85.00
24664;DHT22;12791;50.992;13.788;2023-04-03T00:21:57;4.40;83.70
24664;DHT22;12791;50.992;13.788;2023-04-03T00:24:24;4.40;84.00
24664;DHT22;12791;50.992;13.788;2023-04-03T00:26:51;4.40;85.10
24664;DHT22;12791;50.992;13.788;2023-04-03T00:29:17;4.50;82.60
24664;DHT22;12791;50.992;13.788;2023-04-03T00:31:44;4.40;82.00
24664;DHT22;12791;50.992;13.788;2023-04-03T00:34:12;4.40;79.60
24664;DHT22;12791;50.992;13.788;2023-04-03T00:36:38;4.40;78.30
24664;DHT22;12791;50.992;13.788;2023-04-03T00:39:05;4.50;79.30
24664;DHT22;12791;50.992;13.788;2023-04-03T00:41:32;4.60;81.20
24664;DHT22;12791;50.992;13.788;2023-04-03T00:43:58;4.60;81.30
24664;DHT22;12791;50.992;13.788;2023-04-03T00:46:25;4.70;81.90
24664;DHT22;12791;50.992;13.788;2023-04-03T00:48:51;4.40;81.90
24664;DHT22;12791;50.992;13.788;2023-04-03T00:51:21;4.60;82.20
24664;DHT22;12791;50.992;13.788;2023-04-03T00:53:53;4.50;81.30
24664;DHT22;12791;50.992;13.788;2023-04-03T00:56:23;4.40;83.30
24664;DHT22;12791;50.992;13.788;2023-04-03T00:58:54;4.50;83.20
24664;DHT22;12791;50.992;13.788;2023-04-03T01:01:24;4.40;80.80
24664;DHT22;12791;50.992;13.788;2023-04-03T01:03:51;4.50;78.00
24664;DHT22;12791;50.992;13.788;2023-04-03T01:06:24;4.50;77.90
24664;DHT22;12791;50.992;13.788;2023-04-03T01:08:55;4.30;76.30
24664;DHT22;12791;50.992;13.788;2023-04-03T01:11:22;4.60;77.90
24664;DHT22;12791;50.992;13.788;2023-04-03T01:13:48;4.40;76.60
24664;DHT22;12791;50.992;13.788;2023-04-03T01:16:15;4.40;77.60
24664;DHT22;12791;50.992;13.788;2023-04-03T01:18:42;4.60;79.00
24664;DHT22;12791;50.992;13.788;2023-04-03T01:21:40;4.40;77.60
24664;DHT22;12791;50.992;13.788;2023-04-03T01:24:25;4.30;76.00
24664;DHT22;12791;50.992;13.788;2023-04-03T01:26:53;4.30;76.50
24664;DHT22;12791;50.992;13.788;2023-04-03T01:29:20;4.30;77.00
24664;DHT22;12791;50.992;13.788;2023-04-03T01:31:50;4.20;77.90
24664;DHT22;12791;50.992;13.788;2023-04-03T01:34:17;4.20;78.50
24664;DHT22;12791;50.992;13.788;2023-04-03T01:36:44;4.20;78.00
24664;DHT22;12791;50.992;13.788;2023-04-03T01:39:11;4.20;77.30
24664;DHT22;12791;50.992;13.788;2023-04-03T01:41:38;4.10;76.90
24664;DHT22;12791;50.992;13.788;2023-04-03T01:44:05;4.10;77.30
24664;DHT22;12791;50.992;13.788;2023-04-03T01:46:32;4.10;77.20
24664;DHT22;12791;50.992;13.788;2023-04-03T01:49:00;4.20;77.00
24664;DHT22;12791;50.992;13.788;2023-04-03T01:51:27;4.10;76.50
24664;DHT22;12791;50.992;13.788;2023-04-03T01:53:54;4.20;76.50
24664;DHT22;12791;50.992;13.788;2023-04-03T01:56:20;4.00;75.10
24664;DHT22;12791;50.992;13.788;2023-04-03T01:58:47;4.00;75.30
24664;DHT22;12791;50.992;13.788;2023-04-03T02:01:14;4.00;75.80
24664;DHT22;12791;50.992;13.788;2023-04-03T02:03:41;3.80;76.50
24664;DHT22;12791;50.992;13.788;2023-04-03T02:06:09;3.80;76.70
24664;DHT22;12791;50.992;13.788;2023-04-03T02:08:36;3.70;76.40
24664;DHT22;12791;50.992;13.788;2023-04-03T02:11:02;3.60;76.40
24664;DHT22;12791;50.992;13.788;2023-04-03T02:13:29;3.60;76.60
24664;DHT22;12791;50.992;13.788;2023-04-03T02:15:56;3.50;76.20
24664;DHT22;12791;50.992;13.788;2023-04-03T02:18:22;3.40;76.60
24664;DHT22;12791;50.992;13.788;2023-04-03T02:20:49;3.40;75.80
24664;DHT22;12791;50.992;13.788;2023-04-03T02:23:17;3.40;76.70
24664;DHT22;12791;50.992;13.788;2023-04-03T02:25:44;3.30;76.40
24664;DHT22;12791;50.992;13.788;2023-04-03T02:28:10;3.20;77.20
24664;DHT22;12791;50.992;13.788;2023-04-03T02:30:37;3.20;78.30
24664;DHT22;12791;50.992;13.788;2023-04-03T02:33:03;3.20;77.90
24664;DHT22;12791;50.992;13.788;2023-04-03T02:35:30;3.10;77.20
24664;DHT22;12791;50.992;13.788;2023-04-03T02:37:57;3.20;77.90
24664;DHT22;12791;50.992;13.788;2023-04-03T02:40:25;3.00;77.20
24664;DHT22;12791;50.992;13.788;2023-04-03T02:42:51;2.90;77.90
24664;DHT22;12791;50.992;13.788;2023-04-03T02:45:18;2.90;78.20
24664;DHT22;12791;50.992;13.788;2023-04-03T02:47:45;2.80;78.30
24664;DHT22;12791;50.992;13.788;2023-04-03T02:50:11;2.90;78.80
24664;DHT22;12791;50.992;13.788;2023-04-03T02:52:38;2.80;79.40
24664;DHT22;12791;50.992;13.788;2023-04-03T02:55:06;2.90;79.20
24664;DHT22;12791;50.992;13.788;2023-04-03T02:57:34;2.80;78.20
24664;DHT22;12791;50.992;13.788;2023-04-03T03:00:00;2.70;77.70
24664;DHT22;12791;50.992;13.788;2023-04-03T03:02:27;2.70;77.80
24664;DHT22;12791;50.992;13.788;2023-04-03T03:04:54;2.70;78.50
24664;DHT22;12791;50.992;13.788;2023-04-03T03:07:20;2.80;79.10
24664;DHT22;12791;50.992;13.788;2023-04-03T03:09:47;2.80;79.10
24664;DHT22;12791;50.992;13.788;2023-04-03T03:12:14;2.50;79.50
24664;DHT22;12791;50.992;13.788;2023-04-03T03:14:42;2.50;80.00
24664;DHT22;12791;50.992;13.788;2023-04-03T03:17:09;2.50;80.00
24664;DHT22;12791;50.992;13.788;2023-04-03T03:19:35;2.40;79.90
24664;DHT22;12791;50.992;13.788;2023-04-03T03:22:02;2.40;80.50
24664;DHT22;12791;50.992;13.788;2023-04-03T03:24:29;2.40;81.20
24664;DHT22;12791;50.992;13.788;2023-04-03T03:26:55;2.40;81.70
24664;DHT22;12791;50.992;13.788;2023-04-03T03:29:22;2.40;81.80
24664;DHT22;12791;50.992;13.788;2023-04-03T03:31:50;2.50;81.60
24664;DHT22;12791;50.992;13.788;2023-04-03T03:34:17;2.60;82.50
24664;DHT22;12791;50.992;13.788;2023-04-03T03:36:44;2.20;82.20
24664;DHT22;12791;50.992;13.788;2023-04-03T03:39:10;2.40;82.20
24664;DHT22;12791;50.992;13.788;2023-04-03T03:41:37;2.30;83.20
24664;DHT22;12791;50.992;13.788;2023-04-03T03:44:04;2.30;82.80
24664;DHT22;12791;50.992;13.788;2023-04-03T03:46:30;2.30;83.30
24664;DHT22;12791;50.992;13.788;2023-04-03T03:48:58;2.40;83.90
24664;DHT22;12791;50.992;13.788;2023-04-03T03:51:25;2.40;83.40
24664;DHT22;12791;50.992;13.788;2023-04-03T03:53:52;2.40;83.90
24664;DHT22;12791;50.992;13.788;2023-04-03T03:56:18;2.30;84.50
24664;DHT22;12791;50.992;13.788;2023-04-03T03:58:45;2.70;86.20
24664;DHT22;12791;50.992;13.788;2023-04-03T04:01:12;2.50;86.00
24664;DHT22;12791;50.992;13.788;2023-04-03T04:03:38;2.60;87.00
24664;DHT22;12791;50.992;13.788;2023-04-03T04:06:07;2.40;87.10
24664;DHT22;12791;50.992;13.788;2023-04-03T04:08:33;2.40;88.30
24664;DHT22;12791;50.992;13.788;2023-04-03T04:11:00;2.60;89.20
24664;DHT22;12791;50.992;13.788;2023-04-03T04:13:27;2.40;89.10
24664;DHT22;12791;50.992;13.788;2023-04-03T04:15:53;2.30;90.00
24664;DHT22;12791;50.992;13.788;2023-04-03T04:18:20;2.30;90.60
24664;DHT22;12791;50.992;13.788;2023-04-03T04:20:48;2.30;90.30
24664;DHT22;12791;50.992;13.788;2023-04-03T04:23:16;2.40;90.10
24664;DHT22;12791;50.992;13.788;2023-04-03T04:25:44;2.40;90.20
24664;DHT22;12791;50.992;13.788;2023-04-03T04:28:11;2.30;90.50
24664;DHT22;12791;50.992;13.788;2023-04-03T04:30:37;2.60;90.30
24664;DHT22;12791;50.992;13.788;2023-04-03T04:33:04;2.40;90.30
24664;DHT22;12791;50.992;13.788;2023-04-03T04:35:32;2.40;90.10
24664;DHT22;12791;50.992;13.788;2023-04-03T04:37:58;2.30;90.50
24664;DHT22;12791;50.992;13.788;2023-04-03T04:40:27;2.30;90.30
24664;DHT22;12791;50.992;13.788;2023-04-03T04:42:53;2.30;90.70
24664;DHT22;12791;50.992;13.788;2023-04-03T04:45:20;2.30;90.70
24664;DHT22;12791;50.992;13.788;2023-04-03T04:47:47;2.30;90.80
24664;DHT22;12791;50.992;13.788;2023-04-03T04:50:15;2.30;90.70
24664;DHT22;12791;50.992;13.788;2023-04-03T04:52:41;2.30;90.90
24664;DHT22;12791;50.992;13.788;2023-04-03T04:55:08;2.30;91.30
24664;DHT22;12791;50.992;13.788;2023-04-03T04:57:36;2.30;91.50
24664;DHT22;12791;50.992;13.788;2023-04-03T05:00:05;2.30;91.20
24664;DHT22;12791;50.992;13.788;2023-04-03T05:02:32;2.50;91.40
24664;DHT22;12791;50.992;13.788;2023-04-03T05:04:58;2.30;91.50
24664;DHT22;12791;50.992;13.788;2023-04-03T05:07:25;2.30;91.10
24664;DHT22;12791;50.992;13.788;2023-04-03T05:09:51;2.30;91.30
24664;DHT22;12791;50.992;13.788;2023-04-03T05:12:18;2.30;91.30
24664;DHT22;12791;50.992;13.788;2023-04-03T05:14:46;2.20;91.70
24664;DHT22;12791;50.992;13.788;2023-04-03T05:17:13;2.40;92.40
24664;DHT22;12791;50.992;13.788;2023-04-03T05:19:39;2.20;92.70
24664;DHT22;12791;50.992;13.788;2023-04-03T05:22:06;2.40;93.20
24664;DHT22;12791;50.992;13.788;2023-04-03T05:24:33;2.30;93.10
24664;DHT22;12791;50.992;13.788;2023-04-03T05:26:59;2.60;93.20
24664;DHT22;12791;50.992;13.788;2023-04-03T05:29:26;2.30;92.90
24664;DHT22;12791;50.992;13.788;2023-04-03T05:31:54;2.30;93.10
24664;DHT22;12791;50.992;13.788;2023-04-03T05:34:21;2.30;93.40
24664;DHT22;12791;50.992;13.788;2023-04-03T05:36:47;2.30;93.40
24664;DHT22;12791;50.992;13.788;2023-04-03T05:39:14;2.40;93.10
24664;DHT22;12791;50.992;13.788;2023-04-03T05:41:41;2.30;93.10
24664;DHT22;12791;50.992;13.788;2023-04-03T05:44:07;2.30;93.20
24664;DHT22;12791;50.992;13.788;2023-04-03T05:46:34;2.20;93.70
24664;DHT22;12791;50.992;13.788;2023-04-03T05:49:02;2.10;94.30
24664;DHT22;12791;50.992;13.788;2023-04-03T05:51:32;2.00;94.10
24664;DHT22;12791;50.992;13.788;2023-04-03T05:54:04;2.00;95.40
24664;DHT22;12791;50.992;13.788;2023-04-03T05:56:33;2.00;95.70
24664;DHT22;12791;50.992;13.788;2023-04-03T05:59:00;2.00;95.40
24664;DHT22;12791;50.992;13.788;2023-04-03T06:01:26;2.00;95.30
24664;DHT22;12791;50.992;13.788;2023-04-03T06:03:53;2.00;95.50
24664;DHT22;12791;50.992;13.788;2023-04-03T06:06:22;1.90;95.10
24664;DHT22;12791;50.992;13.788;2023-04-03T06:08:50;2.00;95.40
24664;DHT22;12791;50.992;13.788;2023-04-03T06:11:16;2.00;95.20
24664;DHT22;12791;50.992;13.788;2023-04-03T06:13:43;1.80;95.10
24664;DHT22;12791;50.992;13.788;2023-04-03T06:16:12;1.90;95.20
24664;DHT22;12791;50.992;13.788;2023-04-03T06:18:40;1.80;95.60
24664;DHT22;12791;50.992;13.788;2023-04-03T06:21:08;1.70;95.40
24664;DHT22;12791;50.992;13.788;2023-04-03T06:23:36;1.80;96.30
24664;DHT22;12791;50.992;13.788;2023-04-03T06:26:03;2.10;95.40
24664;DHT22;12791;50.992;13.788;2023-04-03T06:28:30;2.10;95.10
24664;DHT22;12791;50.992;13.788;2023-04-03T06:30:57;1.90;95.30
24664;DHT22;12791;50.992;13.788;2023-04-03T06:33:24;2.00;95.60
24664;DHT22;12791;50.992;13.788;2023-04-03T06:35:56;2.00;96.20
24664;DHT22;12791;50.992;13.788;2023-04-03T06:38:23;2.10;96.20
24664;DHT22;12791;50.992;13.788;2023-04-03T06:40:51;2.10;95.40
24664;DHT22;12791;50.992;13.788;2023-04-03T06:43:18;2.20;94.50
24664;DHT22;12791;50.992;13.788;2023-04-03T06:45:46;2.10;94.10
24664;DHT22;12791;50.992;13.788;2023-04-03T06:48:13;2.20;93.70
24664;DHT22;12791;50.992;13.788;2023-04-03T06:50:39;2.10;93.90
24664;DHT22;12791;50.992;13.788;2023-04-03T06:53:06;2.00;93.30
24664;DHT22;12791;50.992;13.788;2023-04-03T06:55:33;2.10;93.30
24664;DHT22;12791;50.992;13.788;2023-04-03T06:58:02;1.90;93.20
24664;DHT22;12791;50.992;13.788;2023-04-03T07:00:29;2.00;93.40
24664;DHT22;12791;50.992;13.788;2023-04-03T07:02:56;2.00;93.90
24664;DHT22;12791;50.992;13.788;2023-04-03T07:05:23;2.00;94.10
24664;DHT22;12791;50.992;13.788;2023-04-03T07:07:50;1.90;93.70
24664;DHT22;12791;50.992;13.788;2023-04-03T07:10:17;1.80;93.50
24664;DHT22;12791;50.992;13.788;2023-04-03T07:12:44;1.70;94.30
24664;DHT22;12791;50.992;13.788;2023-04-03T07:15:12;2.00;94.70
24664;DHT22;12791;50.992;13.788;2023-04-03T07:17:39;1.70;94.30
24664;DHT22;12791;50.992;13.788;2023-04-03T07:20:07;1.80;95.20
24664;DHT22;12791;50.992;13.788;2023-04-03T07:22:34;1.80;95.10
24664;DHT22;12791;50.992;13.788;2023-04-03T07:25:01;2.00;95.00
24664;DHT22;12791;50.992;13.788;2023-04-03T07:27:27;1.70;94.50
24664;DHT22;12791;50.992;13.788;2023-04-03T07:29:54;1.70;94.00
24664;DHT22;12791;50.992;13.788;2023-04-03T07:32:22;1.60;94.30
24664;DHT22;12791;50.992;13.788;2023-04-03T07:34:49;1.90;94.80
24664;DHT22;12791;50.992;13.788;2023-04-03T07:37:16;1.60;95.00
24664;DHT22;12791;50.992;13.788;2023-04-03T07:39:43;1.70;95.80
24664;DHT22;12791;50.992;13.788;2023-04-03T07:42:10;1.70;96.30
24664;DHT22;12791;50.992;13.788;2023-04-03T07:44:37;1.90;96.00
24664;DHT22;12791;50.992;13.788;2023-04-03T07:47:04;1.80;95.30
24664;DHT22;12791;50.992;13.788;2023-04-03T07:49:32;2.00;96.70
24664;DHT22;12791;50.992;13.788;2023-04-03T07:52:00;1.90;96.40
24664;DHT22;12791;50.992;13.788;2023-04-03T07:54:26;1.80;95.40
24664;DHT22;12791;50.992;13.788;2023-04-03T07:56:54;2.00;95.30
24664;DHT22;12791;50.992;13.788;2023-04-03T07:59:20;2.00;94.70
24664;DHT22;12791;50.992;13.788;2023-04-03T08:01:47;2.20;94.10
24664;DHT22;12791;50.992;13.788;2023-04-03T08:04:14;2.20;94.40
24664;DHT22;12791;50.992;13.788;2023-04-03T08:06:41;2.50;93.50
24664;DHT22;12791;50.992;13.788;2023-04-03T08:09:08;2.10;93.70
24664;DHT22;12791;50.992;13.788;2023-04-03T08:11:35;2.10;93.90
24664;DHT22;12791;50.992;13.788;2023-04-03T08:14:02;2.10;93.90
24664;DHT22;12791;50.992;13.788;2023-04-03T08:16:29;2.20;94.10
24664;DHT22;12791;50.992;13.788;2023-04-03T08:18:55;2.50;93.00
24664;DHT22;12791;50.992;13.788;2023-04-03T08:21:22;2.40;92.90
24664;DHT22;12791;50.992;13.788;2023-04-03T08:23:50;2.50;92.60
24664;DHT22;12791;50.992;13.788;2023-04-03T08:26:18;2.50;91.90
24664;DHT22;12791;50.992;13.788;2023-04-03T08:28:46;2.70;92.70
24664;DHT22;12791;50.992;13.788;2023-04-03T08:31:15;2.70;92.00
24664;DHT22;12791;50.992;13.788;2023-04-03T08:33:42;3.00;91.30
24664;DHT22;12791;50.992;13.788;2023-04-03T08:36:17;3.10;90.20
24664;DHT22;12791;50.992;13.788;2023-04-03T08:38:45;3.40;87.20
24664;DHT22;12791;50.992;13.788;2023-04-03T08:41:15;3.20;86.10
24664;DHT22;12791;50.992;13.788;2023-04-03T08:43:53;3.20;85.40
24664;DHT22;12791;50.992;13.788;2023-04-03T08:46:24;3.30;84.20
24664;DHT22;12791;50.992;13.788;2023-04-03T08:48:53;3.50;83.30
24664;DHT22;12791;50.992;13.788;2023-04-03T08:51:20;3.30;84.70
24664;DHT22;12791;50.992;13.788;2023-04-03T08:53:54;3.40;84.60
24664;DHT22;12791;50.992;13.788;2023-04-03T08:56:24;3.20;84.60
24664;DHT22;12791;50.992;13.788;2023-04-03T08:58:55;3.20;84.00
24664;DHT22;12791;50.992;13.788;2023-04-03T09:01:26;3.50;84.90
24664;DHT22;12791;50.992;13.788;2023-04-03T09:03:54;3.20;84.30
24664;DHT22;12791;50.992;13.788;2023-04-03T09:06:22;3.20;84.60
24664;DHT22;12791;50.992;13.788;2023-04-03T09:08:54;3.10;83.90
24664;DHT22;12791;50.992;13.788;2023-04-03T09:11:27;2.90;84.50
24664;DHT22;12791;50.992;13.788;2023-04-03T09:14:05;3.00;85.40
24664;DHT22;12791;50.992;13.788;2023-04-03T09:16:39;3.20;85.30
24664;DHT22;12791;50.992;13.788;2023-04-03T09:19:15;3.20;85.60
24664;DHT22;12791;50.992;13.788;2023-04-03T09:21:44;3.30;83.20
24664;DHT22;12791;50.992;13.788;2023-04-03T09:24:12;3.20;81.90
24664;DHT22;12791;50.992;13.788;2023-04-03T09:26:44;3.30;81.40
24664;DHT22;12791;50.992;13.788;2023-04-03T09:29:17;3.40;80.80
24664;DHT22;12791;50.992;13.788;2023-04-03T09:31:48;3.30;81.30
24664;DHT22;12791;50.992;13.788;2023-04-03T09:34:26;3.60;81.90
24664;DHT22;12791;50.992;13.788;2023-04-03T09:36:55;3.70;83.10
24664;DHT22;12791;50.992;13.788;2023-04-03T09:39:24;3.70;81.10
24664;DHT22;12791;50.992;13.788;2023-04-03T09:41:59;3.80;81.30
24664;DHT22;12791;50.992;13.788;2023-04-03T09:44:29;3.90;78.90
24664;DHT22;12791;50.992;13.788;2023-04-03T09:46:55;4.10;77.90
24664;DHT22;12791;50.992;13.788;2023-04-03T09:49:22;4.20;78.00
24664;DHT22;12791;50.992;13.788;2023-04-03T09:51:49;4.40;75.10
24664;DHT22;12791;50.992;13.788;2023-04-03T09:54:34;4.50;74.40
24664;DHT22;12791;50.992;13.788;2023-04-03T09:57:10;4.60;69.20
24664;DHT22;12791;50.992;13.788;2023-04-03T09:59:45;4.70;68.60
24664;DHT22;12791;50.992;13.788;2023-04-03T10:02:34;4.70;69.40
24664;DHT22;12791;50.992;13.788;2023-04-03T10:05:01;4.50;64.90
24664;DHT22;12791;50.992;13.788;2023-04-03T10:07:31;4.40;66.00
24664;DHT22;12791;50.992;13.788;2023-04-03T10:10:00;4.70;66.40
24664;DHT22;12791;50.992;13.788;2023-04-03T10:12:30;4.40;65.90
24664;DHT22;12791;50.992;13.788;2023-04-03T10:14:58;4.50;65.70
24664;DHT22;12791;50.992;13.788;2023-04-03T10:17:36;4.60;64.20
24664;DHT22;12791;50.992;13.788;2023-04-03T10:20:11;5.00;66.40
24664;DHT22;12791;50.992;13.788;2023-04-03T10:22:46;4.90;65.80
24664;DHT22;12791;50.992;13.788;2023-04-03T10:25:24;5.10;66.00
24664;DHT22;12791;50.992;13.788;2023-04-03T10:27:57;5.00;64.70
24664;DHT22;12791;50.992;13.788;2023-04-03T10:30:34;5.30;63.80
24664;DHT22;12791;50.992;13.788;2023-04-03T10:33:29;5.20;62.40
24664;DHT22;12791;50.992;13.788;2023-04-03T10:36:07;5.00;61.30
24664;DHT22;12791;50.992;13.788;2023-04-03T10:38:43;4.90;59.90
24664;DHT22;12791;50.992;13.788;2023-04-03T10:41:16;4.90;58.60
24664;DHT22;12791;50.992;13.788;2023-04-03T10:43:47;4.90;58.50
24664;DHT22;12791;50.992;13.788;2023-04-03T10:46:19;4.70;57.50
24664;DHT22;12791;50.992;13.788;2023-04-03T10:49:05;4.70;55.90
24664;DHT22;12791;50.992;13.788;2023-04-03T10:51:41;4.60;56.50
24664;DHT22;12791;50.992;13.788;2023-04-03T10:54:11;4.70;55.80
24664;DHT22;12791;50.992;13.788;2023-04-03T10:56:39;4.80;56.40
24664;DHT22;12791;50.992;13.788;2023-04-03T10:59:18;4.80;55.90
24664;DHT22;12791;50.992;13.788;2023-04-03T11:01:51;5.10;55.40
24664;DHT22;12791;50.992;13.788;2023-04-03T11:04:19;4.80;55.90
24664;DHT22;12791;50.992;13.788;2023-04-03T11:06:49;4.80;50.80
24664;DHT22;12791;50.992;13.788;2023-04-03T11:09:21;5.00;50.00
24664;DHT22;12791;50.992;13.788;2023-04-03T11:11:51;4.90;51.10
24664;DHT22;12791;50.992;13.788;2023-04-03T11:14:26;5.00;50.10
24664;DHT22;12791;50.992;13.788;2023-04-03T11:17:01;5.30;51.40
24664;DHT22;12791;50.992;13.788;2023-04-03T11:19:34;5.00;48.90
24664;DHT22;12791;50.992;13.788;2023-04-03T11:22:09;4.90;49.20
24664;DHT22;12791;50.992;13.788;2023-04-03T11:24:39;4.90;48.80
24664;DHT22;12791;50.992;13.788;2023-04-03T11:27:13;5.00;48.90
24664;DHT22;12791;50.992;13.788;2023-04-03T11:29:45;4.80;49.00
24664;DHT22;12791;50.992;13.788;2023-04-03T11:32:27;4.80;50.00
24664;DHT22;12791;50.992;13.788;2023-04-03T11:34:57;4.90;48.20
24664;DHT22;12791;50.992;13.788;2023-04-03T11:37:29;5.00;47.20
24664;DHT22;12791;50.992;13.788;2023-04-03T11:40:00;5.00;45.50
24664;DHT22;12791;50.992;13.788;2023-04-03T11:42:33;5.10;45.50
24664;DHT22;12791;50.992;13.788;2023-04-03T11:45:17;4.90;46.70
24664;DHT22;12791;50.992;13.788;2023-04-03T11:47:51;5.00;46.80
24664;DHT22;12791;50.992;13.788;2023-04-03T11:50:42;5.10;46.60
24664;DHT22;12791;50.992;13.788;2023-04-03T11:53:34;5.00;48.30
24664;DHT22;12791;50.992;13.788;2023-04-03T11:56:28;5.10;47.70
24664;DHT22;12791;50.992;13.788;2023-04-03T11:59:15;5.10;48.60
24664;DHT22;12791;50.992;13.788;2023-04-03T12:01:47;5.40;49.70
24664;DHT22;12791;50.992;13.788;2023-04-03T12:04:15;5.10;48.40
24664;DHT22;12791;50.992;13.788;2023-04-03T12:09:59;5.20;47.10
24664;DHT22;12791;50.992;13.788;2023-04-03T12:12:33;5.40;46.60
24664;DHT22;12791;50.992;13.788;2023-04-03T12:15:41;5.20;47.20
24664;DHT22;12791;50.992;13.788;2023-04-03T12:21:19;5.20;48.70
24664;DHT22;12791;50.992;13.788;2023-04-03T12:23:59;5.10;50.80
24664;DHT22;12791;50.992;13.788;2023-04-03T12:26:30;5.30;47.70
24664;DHT22;12791;50.992;13.788;2023-04-03T12:28:57;5.10;48.50
24664;DHT22;12791;50.992;13.788;2023-04-03T12:31:37;5.20;48.40
24664;DHT22;12791;50.992;13.788;2023-04-03T12:34:38;5.10;48.70
24664;DHT22;12791;50.992;13.788;2023-04-03T12:37:21;5.10;49.30
24664;DHT22;12791;50.992;13.788;2023-04-03T12:39:55;5.30;49.40
24664;DHT22;12791;50.992;13.788;2023-04-03T12:42:35;5.30;49.80
24664;DHT22;12791;50.992;13.788;2023-04-03T12:45:14;5.30;48.60
24664;DHT22;12791;50.992;13.788;2023-04-03T12:47:43;5.10;48.70
24664;DHT22;12791;50.992;13.788;2023-04-03T12:50:20;5.30;49.30
24664;DHT22;12791;50.992;13.788;2023-04-03T12:52:54;5.00;47.50
24664;DHT22;12791;50.992;13.788;2023-04-03T12:55:22;5.10;46.30
24664;DHT22;12791;50.992;13.788;2023-04-03T12:57:49;5.10;46.20
24664;DHT22;12791;50.992;13.788;2023-04-03T13:00:22;5.20;45.40
24664;DHT22;12791;50.992;13.788;2023-04-03T13:02:49;5.10;47.30
24664;DHT22;12791;50.992;13.788;2023-04-03T13:05:17;5.10;48.60
24664;DHT22;12791;50.992;13.788;2023-04-03T13:07:49;4.90;47.60
24664;DHT22;12791;50.992;13.788;2023-04-03T13:10:18;5.20;48.70
24664;DHT22;12791;50.992;13.788;2023-04-03T13:12:48;5.00;48.10
24664;DHT22;12791;50.992;13.788;2023-04-03T13:15:17;4.90;48.10
24664;DHT22;12791;50.992;13.788;2023-04-03T13:17:45;5.00;49.60
24664;DHT22;12791;50.992;13.788;2023-04-03T13:20:16;4.90;49.50
24664;DHT22;12791;50.992;13.788;2023-04-03T13:22:48;5.40;49.60
24664;DHT22;12791;50.992;13.788;2023-04-03T13:25:18;5.10;48.20
24664;DHT22;12791;50.992;13.788;2023-04-03T13:27:46;5.20;49.70
24664;DHT22;12791;50.992;13.788;2023-04-03T13:30:22;5.20;48.40
24664;DHT22;12791;50.992;13.788;2023-04-03T13:32:49;5.20;49.40
24664;DHT22;12791;50.992;13.788;2023-04-03T13:35:34;5.30;48.90
24664;DHT22;12791;50.992;13.788;2023-04-03T13:38:04;5.20;46.90
24664;DHT22;12791;50.992;13.788;2023-04-03T13:40:33;5.30;47.50
24664;DHT22;12791;50.992;13.788;2023-04-03T13:43:18;5.40;47.30
24664;DHT22;12791;50.992;13.788;2023-04-03T13:45:58;5.30;48.70
24664;DHT22;12791;50.992;13.788;2023-04-03T13:48:26;5.40;48.50
24664;DHT22;12791;50.992;13.788;2023-04-03T13:50:56;5.20;49.20
24664;DHT22;12791;50.992;13.788;2023-04-03T13:53:24;5.30;48.90
24664;DHT22;12791;50.992;13.788;2023-04-03T13:55:56;5.20;48.20
24664;DHT22;12791;50.992;13.788;2023-04-03T13:58:24;5.20;48.60
24664;DHT22;12791;50.992;13.788;2023-04-03T14:00:53;5.10;49.60
24664;DHT22;12791;50.992;13.788;2023-04-03T14:03:22;5.00;48.30
24664;DHT22;12791;50.992;13.788;2023-04-03T14:05:49;4.90;49.50
24664;DHT22;12791;50.992;13.788;2023-04-03T14:08:16;5.00;50.30
24664;DHT22;12791;50.992;13.788;2023-04-03T14:10:43;5.20;50.90
24664;DHT22;12791;50.992;13.788;2023-04-03T14:13:14;5.10;50.00
24664;DHT22;12791;50.992;13.788;2023-04-03T14:15:41;5.20;48.60
24664;DHT22;12791;50.992;13.788;2023-04-03T14:18:10;5.30;48.10
24664;DHT22;12791;50.992;13.788;2023-04-03T14:20:37;5.30;47.10
24664;DHT22;12791;50.992;13.788;2023-04-03T14:23:04;5.50;46.60
24664;DHT22;12791;50.992;13.788;2023-04-03T14:25:32;5.60;46.60
24664;DHT22;12791;50.992;13.788;2023-04-03T14:27:59;5.70;45.10
24664;DHT22;12791;50.992;13.788;2023-04-03T14:30:30;5.60;45.80
24664;DHT22;12791;50.992;13.788;2023-04-03T14:32:57;5.60;47.20
24664;DHT22;12791;50.992;13.788;2023-04-03T14:35:25;5.30;47.80
24664;DHT22;12791;50.992;13.788;2023-04-03T14:37:52;5.40;49.00
24664;DHT22;12791;50.992;13.788;2023-04-03T14:40:22;5.40;48.70
24664;DHT22;12791;50.992;13.788;2023-04-03T14:42:49;5.10;48.10
24664;DHT22;12791;50.992;13.788;2023-04-03T14:45:17;5.10;48.20
24664;DHT22;12791;50.992;13.788;2023-04-03T14:47:47;4.90;48.40
24664;DHT22;12791;50.992;13.788;2023-04-03T14:50:16;5.00;47.20
24664;DHT22;12791;50.992;13.788;2023-04-03T14:52:44;4.90;47.30
24664;DHT22;12791;50.992;13.788;2023-04-03T14:55:13;4.90;47.70
24664;DHT22;12791;50.992;13.788;2023-04-03T14:57:41;4.80;48.10
24664;DHT22;12791;50.992;13.788;2023-04-03T15:00:12;4.90;47.90
24664;DHT22;12791;50.992;13.788;2023-04-03T15:02:39;5.00;48.80
24664;DHT22;12791;50.992;13.788;2023-04-03T15:05:10;4.90;50.00
24664;DHT22;12791;50.992;13.788;2023-04-03T15:07:38;5.00;49.60
24664;DHT22;12791;50.992;13.788;2023-04-03T15:10:16;5.00;49.10
24664;DHT22;12791;50.992;13.788;2023-04-03T15:12:43;5.00;48.40
24664;DHT22;12791;50.992;13.788;2023-04-03T15:15:10;4.80;48.70
24664;DHT22;12791;50.992;13.788;2023-04-03T15:17:37;4.70;49.00
24664;DHT22;12791;50.992;13.788;2023-04-03T15:20:14;4.70;49.30
24664;DHT22;12791;50.992;13.788;2023-04-03T15:22:42;4.80;49.30
24664;DHT22;12791;50.992;13.788;2023-04-03T15:25:09;4.70;50.00
24664;DHT22;12791;50.992;13.788;2023-04-03T15:27:36;4.70;48.60
24664;DHT22;12791;50.992;13.788;2023-04-03T15:30:04;4.70;48.50
24664;DHT22;12791;50.992;13.788;2023-04-03T15:32:32;4.60;47.90
24664;DHT22;12791;50.992;13.788;2023-04-03T15:34:59;4.70;47.60
24664;DHT22;12791;50.992;13.788;2023-04-03T15:37:27;4.60;47.20
24664;DHT22;12791;50.992;13.788;2023-04-03T15:39:53;4.60;47.60
24664;DHT22;12791;50.992;13.788;2023-04-03T15:42:20;4.60;48.50
24664;DHT22;12791;50.992;13.788;2023-04-03T15:44:47;4.90;47.00
24664;DHT22;12791;50.992;13.788;2023-04-03T15:47:14;4.60;47.00
24664;DHT22;12791;50.992;13.788;2023-04-03T15:49:41;4.80;47.30
24664;DHT22;12791;50.992;13.788;2023-04-03T15:52:07;4.80;47.80